EEKA

Kärdla Airport

Kärdla, Estonia
METAR EEKA 170850Z 04005KT 8000 BKN009 M03/M05 Q1020
Observed Flight Rules
Feb-17 @ 08:50 UTC (13 hours ago) Instrument Flight Rules
Wind Visibility Clouds
40° at 5 knots 7,998 meters
  • Broken at 900' AGL
Temperatures Readings
Current -3°C / 27°F
Dewpoint -5°C / 23°F
Humidity 86%
Altimeter 30.12" Hg
Pressure 1020 hPa
Elevation 4
METAR EEKA 170850Z 04005KT 8000 BKN009 M03/M05 Q1020
Observed Flight Rules
Feb-17 @ 08:50 UTC
(13 hours ago)
IFR
Wind Visibility
40° at 5 knots 7,998 meters
Clouds
  • Broken at 900' AGL
Temperature Dewpoint
-3°C / 27°F -5°C / 23°F
Humidity Altimeter Pressure
86% 30.12" Hg 1020 hPa